sensor_id;sensor_type;location;lat;lon;timestamp;P1;durP1;ratioP1;P2;durP2;ratioP2
51174;SDS011;37240;50.104;20.010;2023-11-19T00:04:31;36.25;;;17.10;;
51174;SDS011;37240;50.104;20.010;2023-11-19T00:09:32;43.55;;;16.20;;
51174;SDS011;37240;50.104;20.010;2023-11-19T00:14:33;40.60;;;17.30;;
51174;SDS011;37240;50.104;20.010;2023-11-19T00:19:34;43.33;;;18.80;;
51174;SDS011;37240;50.104;20.010;2023-11-19T00:24:34;37.95;;;16.05;;
51174;SDS011;37240;50.104;20.010;2023-11-19T00:29:35;42.17;;;14.93;;
51174;SDS011;37240;50.104;20.010;2023-11-19T00:34:35;40.60;;;16.45;;
51174;SDS011;37240;50.104;20.010;2023-11-19T00:39:36;39.22;;;17.77;;
51174;SDS011;37240;50.104;20.010;2023-11-19T00:44:36;40.88;;;17.33;;
51174;SDS011;37240;50.104;20.010;2023-11-19T00:49:37;39.80;;;17.73;;
51174;SDS011;37240;50.104;20.010;2023-11-19T00:54:37;42.75;;;17.17;;
51174;SDS011;37240;50.104;20.010;2023-11-19T00:59:40;35.00;;;15.70;;
51174;SDS011;37240;50.104;20.010;2023-11-19T01:04:42;45.08;;;18.48;;
51174;SDS011;37240;50.104;20.010;2023-11-19T01:09:42;37.83;;;17.17;;
51174;SDS011;37240;50.104;20.010;2023-11-19T01:14:43;40.17;;;18.20;;
51174;SDS011;37240;50.104;20.010;2023-11-19T01:19:43;35.97;;;16.05;;
51174;SDS011;37240;50.104;20.010;2023-11-19T01:24:44;40.08;;;17.60;;
51174;SDS011;37240;50.104;20.010;2023-11-19T01:29:44;39.78;;;16.30;;
51174;SDS011;37240;50.104;20.010;2023-11-19T01:34:45;40.75;;;16.75;;
51174;SDS011;37240;50.104;20.010;2023-11-19T01:39:45;37.75;;;16.27;;
51174;SDS011;37240;50.104;20.010;2023-11-19T01:44:57;41.15;;;17.13;;
51174;SDS011;37240;50.104;20.010;2023-11-19T01:49:58;37.25;;;16.25;;
51174;SDS011;37240;50.104;20.010;2023-11-19T01:54:59;39.53;;;17.27;;
51174;SDS011;37240;50.104;20.010;2023-11-19T02:00:01;42.08;;;18.27;;
51174;SDS011;37240;50.104;20.010;2023-11-19T02:05:01;39.40;;;16.73;;
51174;SDS011;37240;50.104;20.010;2023-11-19T02:10:02;41.97;;;17.92;;
51174;SDS011;37240;50.104;20.010;2023-11-19T02:15:03;43.10;;;17.50;;
51174;SDS011;37240;50.104;20.010;2023-11-19T02:20:04;38.63;;;17.63;;
51174;SDS011;37240;50.104;20.010;2023-11-19T02:25:07;36.08;;;16.90;;
51174;SDS011;37240;50.104;20.010;2023-11-19T02:35:12;38.03;;;17.65;;
51174;SDS011;37240;50.104;20.010;2023-11-19T02:40:13;35.22;;;16.38;;
51174;SDS011;37240;50.104;20.010;2023-11-19T02:45:13;38.25;;;15.43;;
51174;SDS011;37240;50.104;20.010;2023-11-19T02:50:14;34.80;;;15.95;;
51174;SDS011;37240;50.104;20.010;2023-11-19T02:55:15;38.85;;;16.52;;
51174;SDS011;37240;50.104;20.010;2023-11-19T03:00:15;37.22;;;16.17;;
51174;SDS011;37240;50.104;20.010;2023-11-19T03:05:20;35.05;;;15.38;;
51174;SDS011;37240;50.104;20.010;2023-11-19T03:10:20;29.98;;;15.30;;
51174;SDS011;37240;50.104;20.010;2023-11-19T03:15:21;40.97;;;16.80;;
51174;SDS011;37240;50.104;20.010;2023-11-19T03:20:21;42.25;;;18.05;;
51174;SDS011;37240;50.104;20.010;2023-11-19T03:25:22;35.45;;;16.05;;
51174;SDS011;37240;50.104;20.010;2023-11-19T03:30:25;34.53;;;16.20;;
51174;SDS011;37240;50.104;20.010;2023-11-19T03:35:25;40.92;;;18.13;;
51174;SDS011;37240;50.104;20.010;2023-11-19T03:40:26;43.72;;;18.73;;
51174;SDS011;37240;50.104;20.010;2023-11-19T03:45:26;39.15;;;17.75;;
51174;SDS011;37240;50.104;20.010;2023-11-19T03:50:27;46.53;;;18.85;;
51174;SDS011;37240;50.104;20.010;2023-11-19T03:55:27;42.53;;;20.15;;
51174;SDS011;37240;50.104;20.010;2023-11-19T04:00:28;47.10;;;19.50;;
51174;SDS011;37240;50.104;20.010;2023-11-19T04:05:28;42.25;;;18.40;;
51174;SDS011;37240;50.104;20.010;2023-11-19T04:10:29;39.30;;;18.33;;
51174;SDS011;37240;50.104;20.010;2023-11-19T04:15:29;45.83;;;20.98;;
51174;SDS011;37240;50.104;20.010;2023-11-19T04:20:30;51.35;;;20.85;;
51174;SDS011;37240;50.104;20.010;2023-11-19T04:25:30;48.63;;;20.88;;
51174;SDS011;37240;50.104;20.010;2023-11-19T04:30:31;49.97;;;22.17;;
51174;SDS011;37240;50.104;20.010;2023-11-19T04:35:31;49.38;;;20.55;;
51174;SDS011;37240;50.104;20.010;2023-11-19T04:40:32;47.78;;;21.02;;
51174;SDS011;37240;50.104;20.010;2023-11-19T04:45:32;55.85;;;22.75;;
51174;SDS011;37240;50.104;20.010;2023-11-19T04:50:33;51.53;;;22.92;;
51174;SDS011;37240;50.104;20.010;2023-11-19T04:55:33;59.47;;;24.92;;
51174;SDS011;37240;50.104;20.010;2023-11-19T05:00:34;64.15;;;24.65;;
51174;SDS011;37240;50.104;20.010;2023-11-19T05:05:34;65.55;;;24.50;;
51174;SDS011;37240;50.104;20.010;2023-11-19T05:10:35;57.50;;;24.42;;
51174;SDS011;37240;50.104;20.010;2023-11-19T05:15:35;52.13;;;22.85;;
51174;SDS011;37240;50.104;20.010;2023-11-19T05:20:36;62.60;;;25.35;;
51174;SDS011;37240;50.104;20.010;2023-11-19T05:25:36;58.40;;;24.00;;
51174;SDS011;37240;50.104;20.010;2023-11-19T05:30:37;50.22;;;23.00;;
51174;SDS011;37240;50.104;20.010;2023-11-19T05:35:38;57.42;;;24.50;;
51174;SDS011;37240;50.104;20.010;2023-11-19T05:40:38;57.25;;;22.33;;
51174;SDS011;37240;50.104;20.010;2023-11-19T05:45:39;47.08;;;21.52;;
51174;SDS011;37240;50.104;20.010;2023-11-19T05:50:39;55.03;;;23.90;;
51174;SDS011;37240;50.104;20.010;2023-11-19T05:55:40;64.40;;;24.08;;
51174;SDS011;37240;50.104;20.010;2023-11-19T06:00:40;47.60;;;22.10;;
51174;SDS011;37240;50.104;20.010;2023-11-19T06:05:41;55.20;;;24.45;;
51174;SDS011;37240;50.104;20.010;2023-11-19T06:10:45;58.92;;;24.83;;
51174;SDS011;37240;50.104;20.010;2023-11-19T06:15:45;47.83;;;22.08;;
51174;SDS011;37240;50.104;20.010;2023-11-19T06:20:46;62.90;;;23.75;;
51174;SDS011;37240;50.104;20.010;2023-11-19T06:25:46;53.25;;;22.08;;
51174;SDS011;37240;50.104;20.010;2023-11-19T06:30:47;62.47;;;25.38;;
51174;SDS011;37240;50.104;20.010;2023-11-19T06:35:47;57.08;;;22.33;;
51174;SDS011;37240;50.104;20.010;2023-11-19T06:40:48;53.53;;;21.30;;
51174;SDS011;37240;50.104;20.010;2023-11-19T06:45:48;47.88;;;21.42;;
51174;SDS011;37240;50.104;20.010;2023-11-19T06:50:49;50.80;;;21.80;;
51174;SDS011;37240;50.104;20.010;2023-11-19T06:55:49;53.53;;;21.35;;
51174;SDS011;37240;50.104;20.010;2023-11-19T07:00:50;53.70;;;22.55;;
51174;SDS011;37240;50.104;20.010;2023-11-19T07:05:50;54.97;;;23.45;;
51174;SDS011;37240;50.104;20.010;2023-11-19T07:10:51;57.03;;;23.42;;
51174;SDS011;37240;50.104;20.010;2023-11-19T07:15:51;57.28;;;24.15;;
51174;SDS011;37240;50.104;20.010;2023-11-19T07:20:52;58.35;;;23.38;;
51174;SDS011;37240;50.104;20.010;2023-11-19T07:25:52;46.85;;;21.38;;
51174;SDS011;37240;50.104;20.010;2023-11-19T07:30:53;52.85;;;21.00;;
51174;SDS011;37240;50.104;20.010;2023-11-19T07:35:53;56.22;;;23.40;;
51174;SDS011;37240;50.104;20.010;2023-11-19T07:40:55;53.35;;;22.35;;
51174;SDS011;37240;50.104;20.010;2023-11-19T07:45:55;45.30;;;20.52;;
51174;SDS011;37240;50.104;20.010;2023-11-19T07:50:56;48.00;;;20.92;;
51174;SDS011;37240;50.104;20.010;2023-11-19T07:55:56;47.03;;;19.25;;
51174;SDS011;37240;50.104;20.010;2023-11-19T08:00:57;43.00;;;18.55;;
51174;SDS011;37240;50.104;20.010;2023-11-19T08:05:57;43.65;;;19.85;;
51174;SDS011;37240;50.104;20.010;2023-11-19T08:10:58;39.70;;;15.32;;
51174;SDS011;37240;50.104;20.010;2023-11-19T08:15:58;36.20;;;14.73;;
51174;SDS011;37240;50.104;20.010;2023-11-19T08:20:59;35.35;;;15.35;;
51174;SDS011;37240;50.104;20.010;2023-11-19T08:26:00;28.90;;;12.77;;
51174;SDS011;37240;50.104;20.010;2023-11-19T08:31:01;27.95;;;11.73;;
51174;SDS011;37240;50.104;20.010;2023-11-19T08:36:02;24.77;;;12.57;;
51174;SDS011;37240;50.104;20.010;2023-11-19T08:41:03;21.30;;;11.20;;
51174;SDS011;37240;50.104;20.010;2023-11-19T08:46:08;23.58;;;10.50;;
51174;SDS011;37240;50.104;20.010;2023-11-19T08:51:10;27.97;;;13.10;;
51174;SDS011;37240;50.104;20.010;2023-11-19T08:56:10;20.27;;;9.80;;
51174;SDS011;37240;50.104;20.010;2023-11-19T09:01:11;21.17;;;11.35;;
51174;SDS011;37240;50.104;20.010;2023-11-19T09:06:11;22.42;;;10.85;;
51174;SDS011;37240;50.104;20.010;2023-11-19T09:11:12;21.67;;;10.50;;
51174;SDS011;37240;50.104;20.010;2023-11-19T09:16:13;20.15;;;11.05;;
51174;SDS011;37240;50.104;20.010;2023-11-19T09:21:13;25.55;;;10.93;;
51174;SDS011;37240;50.104;20.010;2023-11-19T09:26:14;24.02;;;11.00;;
51174;SDS011;37240;50.104;20.010;2023-11-19T09:31:15;25.13;;;11.27;;
51174;SDS011;37240;50.104;20.010;2023-11-19T09:36:16;26.23;;;11.50;;
51174;SDS011;37240;50.104;20.010;2023-11-19T09:41:16;22.15;;;10.65;;
51174;SDS011;37240;50.104;20.010;2023-11-19T09:46:17;24.85;;;10.75;;
51174;SDS011;37240;50.104;20.010;2023-11-19T09:51:20;27.60;;;11.98;;
51174;SDS011;37240;50.104;20.010;2023-11-19T09:56:21;25.67;;;11.00;;
51174;SDS011;37240;50.104;20.010;2023-11-19T10:01:23;23.27;;;11.13;;
51174;SDS011;37240;50.104;20.010;2023-11-19T10:06:24;24.42;;;10.18;;
51174;SDS011;37240;50.104;20.010;2023-11-19T10:11:25;26.63;;;11.48;;
51174;SDS011;37240;50.104;20.010;2023-11-19T10:16:29;25.67;;;11.13;;
51174;SDS011;37240;50.104;20.010;2023-11-19T10:21:32;23.92;;;10.45;;
51174;SDS011;37240;50.104;20.010;2023-11-19T10:26:33;22.17;;;9.82;;
51174;SDS011;37240;50.104;20.010;2023-11-19T10:31:36;23.90;;;10.93;;
51174;SDS011;37240;50.104;20.010;2023-11-19T10:36:37;21.08;;;10.40;;
51174;SDS011;37240;50.104;20.010;2023-11-19T10:41:38;22.13;;;10.73;;
51174;SDS011;37240;50.104;20.010;2023-11-19T10:46:39;23.25;;;10.90;;
51174;SDS011;37240;50.104;20.010;2023-11-19T10:51:43;27.77;;;11.27;;
51174;SDS011;37240;50.104;20.010;2023-11-19T10:56:45;32.97;;;11.73;;
51174;SDS011;37240;50.104;20.010;2023-11-19T11:01:54;25.48;;;10.57;;
51174;SDS011;37240;50.104;20.010;2023-11-19T11:06:56;24.27;;;10.88;;
51174;SDS011;37240;50.104;20.010;2023-11-19T11:11:59;25.17;;;11.43;;
51174;SDS011;37240;50.104;20.010;2023-11-19T11:16:59;21.75;;;11.13;;
51174;SDS011;37240;50.104;20.010;2023-11-19T11:22:02;22.77;;;10.18;;
51174;SDS011;37240;50.104;20.010;2023-11-19T11:37:45;16.60;;;8.55;;
51174;SDS011;37240;50.104;20.010;2023-11-19T11:42:49;18.30;;;8.82;;
51174;SDS011;37240;50.104;20.010;2023-11-19T11:48:11;23.08;;;9.50;;
51174;SDS011;37240;50.104;20.010;2023-11-19T11:53:18;24.92;;;10.73;;
51174;SDS011;37240;50.104;20.010;2023-11-19T11:58:27;23.10;;;10.70;;
51174;SDS011;37240;50.104;20.010;2023-11-19T12:03:31;21.10;;;9.85;;
51174;SDS011;37240;50.104;20.010;2023-11-19T12:08:33;21.10;;;10.90;;
51174;SDS011;37240;50.104;20.010;2023-11-19T12:13:48;26.55;;;12.48;;
51174;SDS011;37240;50.104;20.010;2023-11-19T12:18:54;26.83;;;10.75;;
51174;SDS011;37240;50.104;20.010;2023-11-19T12:23:56;25.05;;;11.63;;
51174;SDS011;37240;50.104;20.010;2023-11-19T12:28:58;17.98;;;8.70;;
51174;SDS011;37240;50.104;20.010;2023-11-19T12:33:59;21.90;;;10.75;;
51174;SDS011;37240;50.104;20.010;2023-11-19T12:39:00;14.95;;;8.73;;
51174;SDS011;37240;50.104;20.010;2023-11-19T12:44:10;14.30;;;6.95;;
51174;SDS011;37240;50.104;20.010;2023-11-19T12:49:11;16.58;;;7.82;;
51174;SDS011;37240;50.104;20.010;2023-11-19T12:54:11;13.63;;;7.05;;
51174;SDS011;37240;50.104;20.010;2023-11-19T12:59:12;13.98;;;7.03;;
51174;SDS011;37240;50.104;20.010;2023-11-19T13:04:16;15.73;;;7.63;;
51174;SDS011;37240;50.104;20.010;2023-11-19T13:09:24;16.25;;;7.88;;
51174;SDS011;37240;50.104;20.010;2023-11-19T13:14:35;14.70;;;8.38;;
51174;SDS011;37240;50.104;20.010;2023-11-19T13:19:36;19.08;;;8.68;;
51174;SDS011;37240;50.104;20.010;2023-11-19T13:24:37;12.15;;;7.45;;
51174;SDS011;37240;50.104;20.010;2023-11-19T13:29:37;16.80;;;7.22;;
51174;SDS011;37240;50.104;20.010;2023-11-19T13:34:38;13.85;;;7.55;;
51174;SDS011;37240;50.104;20.010;2023-11-19T13:39:41;13.35;;;7.25;;
51174;SDS011;37240;50.104;20.010;2023-11-19T13:44:42;11.02;;;7.13;;
51174;SDS011;37240;50.104;20.010;2023-11-19T13:49:44;12.23;;;6.68;;
51174;SDS011;37240;50.104;20.010;2023-11-19T13:54:45;16.20;;;6.82;;
51174;SDS011;37240;50.104;20.010;2023-11-19T13:59:45;14.77;;;7.20;;
51174;SDS011;37240;50.104;20.010;2023-11-19T14:04:46;14.77;;;7.70;;
51174;SDS011;37240;50.104;20.010;2023-11-19T14:09:46;14.10;;;7.88;;
51174;SDS011;37240;50.104;20.010;2023-11-19T14:14:47;15.23;;;7.40;;
51174;SDS011;37240;50.104;20.010;2023-11-19T14:19:47;13.13;;;6.65;;
51174;SDS011;37240;50.104;20.010;2023-11-19T14:24:48;15.63;;;7.95;;
51174;SDS011;37240;50.104;20.010;2023-11-19T14:29:48;17.80;;;8.02;;
51174;SDS011;37240;50.104;20.010;2023-11-19T14:34:49;13.57;;;8.10;;
51174;SDS011;37240;50.104;20.010;2023-11-19T14:39:49;17.45;;;7.72;;
51174;SDS011;37240;50.104;20.010;2023-11-19T14:44:50;16.02;;;7.30;;
51174;SDS011;37240;50.104;20.010;2023-11-19T14:49:51;16.33;;;7.57;;
51174;SDS011;37240;50.104;20.010;2023-11-19T14:54:52;13.55;;;7.32;;
51174;SDS011;37240;50.104;20.010;2023-11-19T14:59:52;16.38;;;7.20;;
51174;SDS011;37240;50.104;20.010;2023-11-19T15:04:53;15.27;;;7.75;;
51174;SDS011;37240;50.104;20.010;2023-11-19T15:09:53;13.00;;;7.28;;
51174;SDS011;37240;50.104;20.010;2023-11-19T15:14:54;15.82;;;8.57;;
51174;SDS011;37240;50.104;20.010;2023-11-19T15:19:54;16.52;;;8.38;;
51174;SDS011;37240;50.104;20.010;2023-11-19T15:24:55;23.27;;;9.80;;
51174;SDS011;37240;50.104;20.010;2023-11-19T15:29:55;14.60;;;7.55;;
51174;SDS011;37240;50.104;20.010;2023-11-19T15:34:56;17.42;;;8.60;;
51174;SDS011;37240;50.104;20.010;2023-11-19T15:39:56;21.05;;;9.95;;
51174;SDS011;37240;50.104;20.010;2023-11-19T15:44:57;17.35;;;8.70;;
51174;SDS011;37240;50.104;20.010;2023-11-19T15:49:57;17.35;;;9.55;;
51174;SDS011;37240;50.104;20.010;2023-11-19T15:54:59;19.08;;;10.00;;
51174;SDS011;37240;50.104;20.010;2023-11-19T16:00:00;20.95;;;9.13;;
51174;SDS011;37240;50.104;20.010;2023-11-19T16:05:00;22.20;;;9.93;;
51174;SDS011;37240;50.104;20.010;2023-11-19T16:10:01;18.85;;;10.10;;
51174;SDS011;37240;50.104;20.010;2023-11-19T16:15:02;19.60;;;10.20;;
51174;SDS011;37240;50.104;20.010;2023-11-19T16:20:03;29.50;;;12.10;;
51174;SDS011;37240;50.104;20.010;2023-11-19T16:25:04;22.05;;;11.15;;
51174;SDS011;37240;50.104;20.010;2023-11-19T16:30:05;23.40;;;11.15;;
51174;SDS011;37240;50.104;20.010;2023-11-19T16:35:06;22.48;;;10.57;;
51174;SDS011;37240;50.104;20.010;2023-11-19T16:40:07;23.42;;;11.40;;
51174;SDS011;37240;50.104;20.010;2023-11-19T16:45:08;26.40;;;12.18;;
51174;SDS011;37240;50.104;20.010;2023-11-19T16:50:09;22.27;;;10.88;;
51174;SDS011;37240;50.104;20.010;2023-11-19T16:55:09;23.25;;;11.45;;
51174;SDS011;37240;50.104;20.010;2023-11-19T17:00:10;26.35;;;10.70;;
51174;SDS011;37240;50.104;20.010;2023-11-19T17:05:11;22.20;;;11.40;;
51174;SDS011;37240;50.104;20.010;2023-11-19T17:10:11;24.52;;;10.18;;
51174;SDS011;37240;50.104;20.010;2023-11-19T17:15:12;23.65;;;11.50;;
51174;SDS011;37240;50.104;20.010;2023-11-19T17:20:12;25.83;;;11.80;;
51174;SDS011;37240;50.104;20.010;2023-11-19T17:25:13;21.90;;;11.07;;
51174;SDS011;37240;50.104;20.010;2023-11-19T17:30:14;25.70;;;12.00;;
51174;SDS011;37240;50.104;20.010;2023-11-19T17:35:14;25.50;;;12.20;;
51174;SDS011;37240;50.104;20.010;2023-11-19T17:40:15;22.83;;;11.27;;
51174;SDS011;37240;50.104;20.010;2023-11-19T17:45:15;28.40;;;13.20;;
51174;SDS011;37240;50.104;20.010;2023-11-19T17:50:16;25.42;;;12.38;;
51174;SDS011;37240;50.104;20.010;2023-11-19T17:55:16;31.05;;;13.98;;
51174;SDS011;37240;50.104;20.010;2023-11-19T18:00:17;27.77;;;11.45;;
51174;SDS011;37240;50.104;20.010;2023-11-19T18:05:18;42.20;;;15.75;;
51174;SDS011;37240;50.104;20.010;2023-11-19T18:10:18;31.75;;;14.77;;
51174;SDS011;37240;50.104;20.010;2023-11-19T18:15:19;39.13;;;14.95;;
51174;SDS011;37240;50.104;20.010;2023-11-19T18:20:19;43.70;;;15.65;;
51174;SDS011;37240;50.104;20.010;2023-11-19T18:25:20;41.28;;;17.20;;
51174;SDS011;37240;50.104;20.010;2023-11-19T18:30:21;37.95;;;15.60;;
51174;SDS011;37240;50.104;20.010;2023-11-19T18:35:21;35.55;;;16.55;;
51174;SDS011;37240;50.104;20.010;2023-11-19T18:40:22;47.33;;;19.95;;
51174;SDS011;37240;50.104;20.010;2023-11-19T18:45:22;43.92;;;18.83;;
51174;SDS011;37240;50.104;20.010;2023-11-19T18:50:23;47.47;;;19.05;;
51174;SDS011;37240;50.104;20.010;2023-11-19T18:55:23;41.70;;;18.50;;
51174;SDS011;37240;50.104;20.010;2023-11-19T19:00:24;51.70;;;19.65;;
51174;SDS011;37240;50.104;20.010;2023-11-19T19:05:24;49.42;;;19.55;;
51174;SDS011;37240;50.104;20.010;2023-11-19T19:10:25;53.83;;;19.50;;
51174;SDS011;37240;50.104;20.010;2023-11-19T19:15:25;46.55;;;18.90;;
51174;SDS011;37240;50.104;20.010;2023-11-19T19:20:26;47.20;;;19.02;;
51174;SDS011;37240;50.104;20.010;2023-11-19T19:25:26;47.58;;;19.63;;
51174;SDS011;37240;50.104;20.010;2023-11-19T19:30:27;47.72;;;19.05;;
51174;SDS011;37240;50.104;20.010;2023-11-19T19:35:28;45.28;;;18.30;;
51174;SDS011;37240;50.104;20.010;2023-11-19T19:40:28;46.05;;;18.58;;
51174;SDS011;37240;50.104;20.010;2023-11-19T19:45:29;42.28;;;18.02;;
51174;SDS011;37240;50.104;20.010;2023-11-19T19:50:29;43.78;;;18.63;;
51174;SDS011;37240;50.104;20.010;2023-11-19T19:55:30;48.63;;;18.75;;
51174;SDS011;37240;50.104;20.010;2023-11-19T20:00:30;37.30;;;16.38;;
51174;SDS011;37240;50.104;20.010;2023-11-19T20:05:31;44.28;;;17.35;;
51174;SDS011;37240;50.104;20.010;2023-11-19T20:10:31;40.28;;;14.50;;
51174;SDS011;37240;50.104;20.010;2023-11-19T20:15:32;41.40;;;15.68;;
51174;SDS011;37240;50.104;20.010;2023-11-19T20:20:32;37.60;;;14.15;;
51174;SDS011;37240;50.104;20.010;2023-11-19T20:25:33;28.25;;;12.75;;
51174;SDS011;37240;50.104;20.010;2023-11-19T20:30:33;34.95;;;14.30;;
51174;SDS011;37240;50.104;20.010;2023-11-19T20:35:34;36.50;;;13.98;;
51174;SDS011;37240;50.104;20.010;2023-11-19T20:40:34;37.25;;;15.32;;
51174;SDS011;37240;50.104;20.010;2023-11-19T20:45:35;43.65;;;17.42;;
51174;SDS011;37240;50.104;20.010;2023-11-19T20:50:36;45.65;;;19.15;;
51174;SDS011;37240;50.104;20.010;2023-11-19T20:55:37;43.97;;;17.58;;
51174;SDS011;37240;50.104;20.010;2023-11-19T21:00:38;42.63;;;18.30;;
51174;SDS011;37240;50.104;20.010;2023-11-19T21:05:38;35.65;;;15.55;;
51174;SDS011;37240;50.104;20.010;2023-11-19T21:10:39;38.67;;;16.10;;
51174;SDS011;37240;50.104;20.010;2023-11-19T21:15:40;40.60;;;16.20;;
51174;SDS011;37240;50.104;20.010;2023-11-19T21:20:40;32.70;;;14.60;;
51174;SDS011;37240;50.104;20.010;2023-11-19T21:25:41;36.33;;;14.65;;
51174;SDS011;37240;50.104;20.010;2023-11-19T21:30:41;36.88;;;14.02;;
51174;SDS011;37240;50.104;20.010;2023-11-19T21:35:42;30.88;;;13.07;;
51174;SDS011;37240;50.104;20.010;2023-11-19T21:40:42;30.73;;;13.07;;
51174;SDS011;37240;50.104;20.010;2023-11-19T21:45:43;29.45;;;12.35;;
51174;SDS011;37240;50.104;20.010;2023-11-19T21:50:47;27.98;;;11.70;;
51174;SDS011;37240;50.104;20.010;2023-11-19T21:55:47;21.85;;;10.38;;
51174;SDS011;37240;50.104;20.010;2023-11-19T22:00:48;17.38;;;8.90;;
51174;SDS011;37240;50.104;20.010;2023-11-19T22:05:49;23.25;;;9.73;;
51174;SDS011;37240;50.104;20.010;2023-11-19T22:10:50;19.13;;;8.55;;
51174;SDS011;37240;50.104;20.010;2023-11-19T22:15:50;18.98;;;8.43;;
51174;SDS011;37240;50.104;20.010;2023-11-19T22:20:51;20.23;;;7.65;;
51174;SDS011;37240;50.104;20.010;2023-11-19T22:25:51;12.93;;;6.50;;
51174;SDS011;37240;50.104;20.010;2023-11-19T22:30:52;17.13;;;6.88;;
51174;SDS011;37240;50.104;20.010;2023-11-19T22:35:52;11.50;;;5.50;;
51174;SDS011;37240;50.104;20.010;2023-11-19T22:40:53;17.58;;;7.78;;
51174;SDS011;37240;50.104;20.010;2023-11-19T22:45:53;22.42;;;9.10;;
51174;SDS011;37240;50.104;20.010;2023-11-19T22:50:54;26.40;;;11.02;;
51174;SDS011;37240;50.104;20.010;2023-11-19T22:55:54;26.38;;;10.70;;
51174;SDS011;37240;50.104;20.010;2023-11-19T23:00:55;32.97;;;12.40;;
51174;SDS011;37240;50.104;20.010;2023-11-19T23:05:55;35.00;;;13.32;;
51174;SDS011;37240;50.104;20.010;2023-11-19T23:10:56;27.27;;;13.25;;
51174;SDS011;37240;50.104;20.010;2023-11-19T23:15:56;33.00;;;13.50;;
51174;SDS011;37240;50.104;20.010;2023-11-19T23:20:57;36.33;;;13.48;;
51174;SDS011;37240;50.104;20.010;2023-11-19T23:25:58;32.53;;;13.05;;
51174;SDS011;37240;50.104;20.010;2023-11-19T23:30:58;27.05;;;12.07;;
51174;SDS011;37240;50.104;20.010;2023-11-19T23:35:59;30.45;;;12.32;;
51174;SDS011;37240;50.104;20.010;2023-11-19T23:40:59;24.52;;;11.32;;
51174;SDS011;37240;50.104;20.010;2023-11-19T23:46:00;26.23;;;11.05;;
51174;SDS011;37240;50.104;20.010;2023-11-19T23:51:00;30.20;;;11.38;;
51174;SDS011;37240;50.104;20.010;2023-11-19T23:56:01;21.00;;;9.32;;
